sensor_id;sensor_type;location;lat;lon;timestamp;P1;durP1;ratioP1;P2;durP2;ratioP2
77522;SDS011;66637;-29.628;-49.938;2023-02-01T00:01:09;5.47;;;2.03;;
77522;SDS011;66637;-29.628;-49.938;2023-02-01T00:03:40;18.30;;;7.15;;
77522;SDS011;66637;-29.628;-49.938;2023-02-01T00:06:13;6.03;;;3.00;;
77522;SDS011;66637;-29.628;-49.938;2023-02-01T00:08:44;6.32;;;2.45;;
77522;SDS011;66637;-29.628;-49.938;2023-02-01T00:11:20;6.20;;;2.22;;
77522;SDS011;66637;-29.628;-49.938;2023-02-01T00:13:52;128.70;;;16.60;;
77522;SDS011;66637;-29.628;-49.938;2023-02-01T00:16:23;111.00;;;14.93;;
77522;SDS011;66637;-29.628;-49.938;2023-02-01T00:19:07;173.02;;;26.13;;
77522;SDS011;66637;-29.628;-49.938;2023-02-01T00:21:41;223.40;;;29.40;;
77522;SDS011;66637;-29.628;-49.938;2023-02-01T00:24:13;353.48;;;48.28;;
77522;SDS011;66637;-29.628;-49.938;2023-02-01T00:26:44;313.88;;;42.50;;
77522;SDS011;66637;-29.628;-49.938;2023-02-01T00:29:17;263.70;;;39.63;;
77522;SDS011;66637;-29.628;-49.938;2023-02-01T00:31:50;79.40;;;14.13;;
77522;SDS011;66637;-29.628;-49.938;2023-02-01T00:34:21;44.20;;;8.85;;
77522;SDS011;66637;-29.628;-49.938;2023-02-01T00:36:53;40.95;;;8.10;;
77522;SDS011;66637;-29.628;-49.938;2023-02-01T00:39:24;14.32;;;3.75;;
77522;SDS011;66637;-29.628;-49.938;2023-02-01T00:41:55;8.98;;;3.00;;
77522;SDS011;66637;-29.628;-49.938;2023-02-01T00:44:25;7.10;;;2.70;;
77522;SDS011;66637;-29.628;-49.938;2023-02-01T00:46:56;4.45;;;2.20;;
77522;SDS011;66637;-29.628;-49.938;2023-02-01T00:52:25;5.03;;;2.15;;
77522;SDS011;66637;-29.628;-49.938;2023-02-01T00:55:09;5.72;;;2.03;;
77522;SDS011;66637;-29.628;-49.938;2023-02-01T00:58:07;4.18;;;2.10;;
77522;SDS011;66637;-29.628;-49.938;2023-02-01T01:01:18;5.55;;;2.28;;
77522;SDS011;66637;-29.628;-49.938;2023-02-01T01:03:53;3.70;;;1.88;;
77522;SDS011;66637;-29.628;-49.938;2023-02-01T01:06:31;4.88;;;2.30;;
77522;SDS011;66637;-29.628;-49.938;2023-02-01T01:09:12;3.65;;;2.08;;
77522;SDS011;66637;-29.628;-49.938;2023-02-01T01:11:59;3.20;;;1.67;;
77522;SDS011;66637;-29.628;-49.938;2023-02-01T01:15:03;4.05;;;1.92;;
77522;SDS011;66637;-29.628;-49.938;2023-02-01T01:17:48;3.05;;;1.90;;
77522;SDS011;66637;-29.628;-49.938;2023-02-01T01:20:20;6.78;;;2.10;;
77522;SDS011;66637;-29.628;-49.938;2023-02-01T01:23:13;4.70;;;2.03;;
77522;SDS011;66637;-29.628;-49.938;2023-02-01T01:26:21;7.00;;;1.80;;
77522;SDS011;66637;-29.628;-49.938;2023-02-01T01:29:27;7.22;;;1.98;;
77522;SDS011;66637;-29.628;-49.938;2023-02-01T01:32:14;3.88;;;1.90;;
77522;SDS011;66637;-29.628;-49.938;2023-02-01T01:34:58;6.07;;;2.08;;
77522;SDS011;66637;-29.628;-49.938;2023-02-01T01:37:38;4.35;;;1.77;;
77522;SDS011;66637;-29.628;-49.938;2023-02-01T01:40:30;4.22;;;1.98;;
77522;SDS011;66637;-29.628;-49.938;2023-02-01T01:43:16;4.60;;;1.80;;
77522;SDS011;66637;-29.628;-49.938;2023-02-01T01:45:54;2.78;;;1.88;;
77522;SDS011;66637;-29.628;-49.938;2023-02-01T01:48:28;6.13;;;1.67;;
77522;SDS011;66637;-29.628;-49.938;2023-02-01T01:51:28;8.23;;;2.17;;
77522;SDS011;66637;-29.628;-49.938;2023-02-01T01:54:13;3.75;;;1.83;;
77522;SDS011;66637;-29.628;-49.938;2023-02-01T01:57:16;6.32;;;1.63;;
77522;SDS011;66637;-29.628;-49.938;2023-02-01T02:00:12;4.95;;;1.77;;
77522;SDS011;66637;-29.628;-49.938;2023-02-01T02:03:01;3.38;;;1.80;;
77522;SDS011;66637;-29.628;-49.938;2023-02-01T02:06:09;4.75;;;1.77;;
77522;SDS011;66637;-29.628;-49.938;2023-02-01T02:09:34;4.90;;;2.10;;
77522;SDS011;66637;-29.628;-49.938;2023-02-01T02:12:46;3.20;;;1.40;;
77522;SDS011;66637;-29.628;-49.938;2023-02-01T02:15:26;5.82;;;1.90;;
77522;SDS011;66637;-29.628;-49.938;2023-02-01T02:18:36;3.17;;;1.60;;
77522;SDS011;66637;-29.628;-49.938;2023-02-01T02:21:48;4.68;;;1.95;;
77522;SDS011;66637;-29.628;-49.938;2023-02-01T02:36:25;3.70;;;2.03;;
77522;SDS011;66637;-29.628;-49.938;2023-02-01T02:46:21;4.53;;;2.00;;
77522;SDS011;66637;-29.628;-49.938;2023-02-01T02:55:04;3.50;;;2.03;;
77522;SDS011;66637;-29.628;-49.938;2023-02-01T02:57:40;5.25;;;2.08;;
77522;SDS011;66637;-29.628;-49.938;2023-02-01T03:00:32;4.35;;;2.30;;
77522;SDS011;66637;-29.628;-49.938;2023-02-01T03:03:25;8.02;;;1.98;;
77522;SDS011;66637;-29.628;-49.938;2023-02-01T03:06:14;4.20;;;1.83;;
77522;SDS011;66637;-29.628;-49.938;2023-02-01T03:08:48;5.20;;;2.00;;
77522;SDS011;66637;-29.628;-49.938;2023-02-01T03:11:25;5.65;;;2.30;;
77522;SDS011;66637;-29.628;-49.938;2023-02-01T03:14:16;6.65;;;1.90;;
77522;SDS011;66637;-29.628;-49.938;2023-02-01T03:16:51;2.17;;;1.95;;
77522;SDS011;66637;-29.628;-49.938;2023-02-01T03:19:45;4.15;;;1.75;;
77522;SDS011;66637;-29.628;-49.938;2023-02-01T03:22:20;8.13;;;2.38;;
77522;SDS011;66637;-29.628;-49.938;2023-02-01T03:24:57;3.50;;;1.90;;
77522;SDS011;66637;-29.628;-49.938;2023-02-01T03:28:00;5.20;;;2.20;;
77522;SDS011;66637;-29.628;-49.938;2023-02-01T03:30:41;5.70;;;2.17;;
77522;SDS011;66637;-29.628;-49.938;2023-02-01T03:33:13;3.58;;;2.20;;
77522;SDS011;66637;-29.628;-49.938;2023-02-01T03:36:02;5.80;;;2.20;;
77522;SDS011;66637;-29.628;-49.938;2023-02-01T03:38:55;4.75;;;2.30;;
77522;SDS011;66637;-29.628;-49.938;2023-02-01T03:41:44;6.88;;;1.88;;
77522;SDS011;66637;-29.628;-49.938;2023-02-01T03:47:06;7.50;;;2.33;;
77522;SDS011;66637;-29.628;-49.938;2023-02-01T03:49:47;3.97;;;2.03;;
77522;SDS011;66637;-29.628;-49.938;2023-02-01T03:52:22;4.65;;;2.00;;
77522;SDS011;66637;-29.628;-49.938;2023-02-01T03:55:03;4.28;;;2.30;;
77522;SDS011;66637;-29.628;-49.938;2023-02-01T03:57:45;7.00;;;2.10;;
77522;SDS011;66637;-29.628;-49.938;2023-02-01T04:00:36;6.53;;;2.30;;
77522;SDS011;66637;-29.628;-49.938;2023-02-01T04:03:06;6.70;;;2.67;;
77522;SDS011;66637;-29.628;-49.938;2023-02-01T04:05:37;3.85;;;2.15;;
77522;SDS011;66637;-29.628;-49.938;2023-02-01T04:08:08;5.20;;;2.20;;
77522;SDS011;66637;-29.628;-49.938;2023-02-01T04:10:38;5.75;;;2.38;;
77522;SDS011;66637;-29.628;-49.938;2023-02-01T04:13:08;10.10;;;2.70;;
77522;SDS011;66637;-29.628;-49.938;2023-02-01T04:15:38;6.68;;;2.55;;
77522;SDS011;66637;-29.628;-49.938;2023-02-01T04:18:08;5.32;;;2.45;;
77522;SDS011;66637;-29.628;-49.938;2023-02-01T04:20:39;4.95;;;2.65;;
77522;SDS011;66637;-29.628;-49.938;2023-02-01T04:23:09;105.38;;;16.40;;
77522;SDS011;66637;-29.628;-49.938;2023-02-01T04:25:39;280.38;;;35.67;;
77522;SDS011;66637;-29.628;-49.938;2023-02-01T04:28:09;226.80;;;30.83;;
77522;SDS011;66637;-29.628;-49.938;2023-02-01T04:30:39;270.42;;;38.67;;
77522;SDS011;66637;-29.628;-49.938;2023-02-01T04:33:09;328.23;;;47.65;;
77522;SDS011;66637;-29.628;-49.938;2023-02-01T04:35:42;361.48;;;48.80;;
77522;SDS011;66637;-29.628;-49.938;2023-02-01T04:38:12;335.55;;;45.38;;
77522;SDS011;66637;-29.628;-49.938;2023-02-01T04:40:42;319.63;;;45.22;;
77522;SDS011;66637;-29.628;-49.938;2023-02-01T04:43:12;306.23;;;43.15;;
77522;SDS011;66637;-29.628;-49.938;2023-02-01T04:45:46;259.17;;;39.17;;
77522;SDS011;66637;-29.628;-49.938;2023-02-01T04:48:18;282.23;;;41.00;;
77522;SDS011;66637;-29.628;-49.938;2023-02-01T04:50:51;326.33;;;43.97;;
77522;SDS011;66637;-29.628;-49.938;2023-02-01T04:53:21;285.13;;;40.17;;
77522;SDS011;66637;-29.628;-49.938;2023-02-01T04:55:51;256.63;;;36.50;;
77522;SDS011;66637;-29.628;-49.938;2023-02-01T04:58:21;244.18;;;35.30;;
77522;SDS011;66637;-29.628;-49.938;2023-02-01T05:00:51;329.52;;;48.03;;
77522;SDS011;66637;-29.628;-49.938;2023-02-01T05:03:21;333.90;;;50.33;;
77522;SDS011;66637;-29.628;-49.938;2023-02-01T05:05:51;356.98;;;50.55;;
77522;SDS011;66637;-29.628;-49.938;2023-02-01T05:08:22;288.23;;;42.53;;
77522;SDS011;66637;-29.628;-49.938;2023-02-01T05:10:54;318.90;;;47.35;;
77522;SDS011;66637;-29.628;-49.938;2023-02-01T05:13:24;307.73;;;49.47;;
77522;SDS011;66637;-29.628;-49.938;2023-02-01T05:16:13;304.90;;;44.90;;
77522;SDS011;66637;-29.628;-49.938;2023-02-01T05:18:43;284.48;;;42.35;;
77522;SDS011;66637;-29.628;-49.938;2023-02-01T05:21:14;266.63;;;40.70;;
77522;SDS011;66637;-29.628;-49.938;2023-02-01T05:23:44;218.88;;;36.65;;
77522;SDS011;66637;-29.628;-49.938;2023-02-01T05:26:32;197.27;;;32.47;;
77522;SDS011;66637;-29.628;-49.938;2023-02-01T05:29:02;185.43;;;30.02;;
77522;SDS011;66637;-29.628;-49.938;2023-02-01T05:31:33;132.70;;;22.17;;
77522;SDS011;66637;-29.628;-49.938;2023-02-01T05:34:03;70.13;;;12.90;;
77522;SDS011;66637;-29.628;-49.938;2023-02-01T05:36:34;65.70;;;13.57;;
77522;SDS011;66637;-29.628;-49.938;2023-02-01T05:39:04;139.23;;;22.25;;
77522;SDS011;66637;-29.628;-49.938;2023-02-01T05:41:34;102.60;;;18.65;;
77522;SDS011;66637;-29.628;-49.938;2023-02-01T05:44:04;59.13;;;12.38;;
77522;SDS011;66637;-29.628;-49.938;2023-02-01T05:46:36;442.77;;;66.63;;
77522;SDS011;66637;-29.628;-49.938;2023-02-01T05:49:06;374.58;;;54.45;;
77522;SDS011;66637;-29.628;-49.938;2023-02-01T05:51:37;330.30;;;48.15;;
77522;SDS011;66637;-29.628;-49.938;2023-02-01T05:54:08;152.15;;;25.23;;
77522;SDS011;66637;-29.628;-49.938;2023-02-01T05:56:38;249.32;;;36.92;;
77522;SDS011;66637;-29.628;-49.938;2023-02-01T05:59:09;428.10;;;61.35;;
77522;SDS011;66637;-29.628;-49.938;2023-02-01T06:01:40;425.40;;;61.95;;
77522;SDS011;66637;-29.628;-49.938;2023-02-01T06:04:10;462.25;;;66.00;;
77522;SDS011;66637;-29.628;-49.938;2023-02-01T06:06:40;454.65;;;71.63;;
77522;SDS011;66637;-29.628;-49.938;2023-02-01T06:09:10;390.85;;;57.97;;
77522;SDS011;66637;-29.628;-49.938;2023-02-01T06:11:40;359.27;;;52.83;;
77522;SDS011;66637;-29.628;-49.938;2023-02-01T06:14:10;177.45;;;29.42;;
77522;SDS011;66637;-29.628;-49.938;2023-02-01T06:16:40;73.32;;;13.48;;
77522;SDS011;66637;-29.628;-49.938;2023-02-01T06:19:10;42.03;;;9.75;;
77522;SDS011;66637;-29.628;-49.938;2023-02-01T06:21:40;29.92;;;7.50;;
77522;SDS011;66637;-29.628;-49.938;2023-02-01T06:24:10;17.25;;;4.47;;
77522;SDS011;66637;-29.628;-49.938;2023-02-01T06:26:40;18.75;;;4.43;;
77522;SDS011;66637;-29.628;-49.938;2023-02-01T06:29:10;17.38;;;5.38;;
77522;SDS011;66637;-29.628;-49.938;2023-02-01T06:31:40;10.38;;;3.83;;
77522;SDS011;66637;-29.628;-49.938;2023-02-01T06:34:11;20.02;;;4.80;;
77522;SDS011;66637;-29.628;-49.938;2023-02-01T06:36:41;17.58;;;4.55;;
77522;SDS011;66637;-29.628;-49.938;2023-02-01T06:39:11;13.70;;;4.40;;
77522;SDS011;66637;-29.628;-49.938;2023-02-01T06:44:19;19.05;;;5.50;;
77522;SDS011;66637;-29.628;-49.938;2023-02-01T06:46:49;18.73;;;4.75;;
77522;SDS011;66637;-29.628;-49.938;2023-02-01T06:49:19;22.13;;;4.72;;
77522;SDS011;66637;-29.628;-49.938;2023-02-01T06:51:49;14.68;;;4.50;;
77522;SDS011;66637;-29.628;-49.938;2023-02-01T06:54:19;18.23;;;4.45;;
77522;SDS011;66637;-29.628;-49.938;2023-02-01T06:56:49;19.80;;;4.85;;
77522;SDS011;66637;-29.628;-49.938;2023-02-01T06:59:19;14.18;;;4.40;;
77522;SDS011;66637;-29.628;-49.938;2023-02-01T07:01:49;12.18;;;4.05;;
77522;SDS011;66637;-29.628;-49.938;2023-02-01T07:04:19;15.25;;;4.10;;
77522;SDS011;66637;-29.628;-49.938;2023-02-01T07:06:49;11.40;;;3.95;;
77522;SDS011;66637;-29.628;-49.938;2023-02-01T07:09:19;8.05;;;3.20;;
77522;SDS011;66637;-29.628;-49.938;2023-02-01T07:11:49;9.73;;;3.50;;
77522;SDS011;66637;-29.628;-49.938;2023-02-01T07:14:19;11.50;;;3.83;;
77522;SDS011;66637;-29.628;-49.938;2023-02-01T07:16:50;9.18;;;3.55;;
77522;SDS011;66637;-29.628;-49.938;2023-02-01T07:19:20;9.55;;;3.80;;
77522;SDS011;66637;-29.628;-49.938;2023-02-01T07:21:50;11.18;;;3.75;;
77522;SDS011;66637;-29.628;-49.938;2023-02-01T07:24:20;7.57;;;3.35;;
77522;SDS011;66637;-29.628;-49.938;2023-02-01T07:26:50;9.32;;;3.83;;
77522;SDS011;66637;-29.628;-49.938;2023-02-01T07:29:20;5.93;;;3.28;;
77522;SDS011;66637;-29.628;-49.938;2023-02-01T07:31:50;7.95;;;3.33;;
77522;SDS011;66637;-29.628;-49.938;2023-02-01T07:34:20;7.93;;;3.03;;
77522;SDS011;66637;-29.628;-49.938;2023-02-01T07:36:50;9.00;;;3.30;;
77522;SDS011;66637;-29.628;-49.938;2023-02-01T07:39:20;58.67;;;9.02;;
77522;SDS011;66637;-29.628;-49.938;2023-02-01T07:41:50;14.95;;;4.13;;
77522;SDS011;66637;-29.628;-49.938;2023-02-01T07:44:20;11.40;;;3.72;;
77522;SDS011;66637;-29.628;-49.938;2023-02-01T07:46:51;8.02;;;2.70;;
77522;SDS011;66637;-29.628;-49.938;2023-02-01T07:49:21;8.00;;;3.17;;
77522;SDS011;66637;-29.628;-49.938;2023-02-01T07:51:51;7.07;;;3.38;;
77522;SDS011;66637;-29.628;-49.938;2023-02-01T07:54:21;10.15;;;3.20;;
77522;SDS011;66637;-29.628;-49.938;2023-02-01T07:56:52;5.43;;;2.78;;
77522;SDS011;66637;-29.628;-49.938;2023-02-01T07:59:21;8.82;;;2.80;;
77522;SDS011;66637;-29.628;-49.938;2023-02-01T08:01:52;5.60;;;2.78;;
77522;SDS011;66637;-29.628;-49.938;2023-02-01T08:04:21;9.48;;;3.13;;
77522;SDS011;66637;-29.628;-49.938;2023-02-01T08:06:51;7.13;;;2.80;;
77522;SDS011;66637;-29.628;-49.938;2023-02-01T08:09:21;6.70;;;2.70;;
77522;SDS011;66637;-29.628;-49.938;2023-02-01T08:11:51;5.93;;;2.42;;
77522;SDS011;66637;-29.628;-49.938;2023-02-01T08:14:21;7.60;;;2.17;;
77522;SDS011;66637;-29.628;-49.938;2023-02-01T08:16:51;6.45;;;2.72;;
77522;SDS011;66637;-29.628;-49.938;2023-02-01T08:19:21;9.27;;;2.78;;
77522;SDS011;66637;-29.628;-49.938;2023-02-01T08:21:51;5.82;;;2.55;;
77522;SDS011;66637;-29.628;-49.938;2023-02-01T08:24:21;7.43;;;2.65;;
77522;SDS011;66637;-29.628;-49.938;2023-02-01T08:26:51;3.08;;;2.30;;
77522;SDS011;66637;-29.628;-49.938;2023-02-01T08:29:21;6.95;;;2.53;;
77522;SDS011;66637;-29.628;-49.938;2023-02-01T08:31:51;7.18;;;2.60;;
77522;SDS011;66637;-29.628;-49.938;2023-02-01T08:34:23;5.70;;;2.50;;
77522;SDS011;66637;-29.628;-49.938;2023-02-01T08:36:53;5.45;;;2.50;;
77522;SDS011;66637;-29.628;-49.938;2023-02-01T08:39:29;5.00;;;2.30;;
77522;SDS011;66637;-29.628;-49.938;2023-02-01T08:41:58;4.97;;;2.47;;
77522;SDS011;66637;-29.628;-49.938;2023-02-01T08:44:47;4.20;;;2.10;;
77522;SDS011;66637;-29.628;-49.938;2023-02-01T08:47:17;7.45;;;2.40;;
77522;SDS011;66637;-29.628;-49.938;2023-02-01T08:49:47;7.43;;;2.47;;
77522;SDS011;66637;-29.628;-49.938;2023-02-01T08:52:16;3.70;;;2.03;;
77522;SDS011;66637;-29.628;-49.938;2023-02-01T08:54:47;7.78;;;2.35;;
77522;SDS011;66637;-29.628;-49.938;2023-02-01T08:57:16;3.85;;;2.17;;
77522;SDS011;66637;-29.628;-49.938;2023-02-01T08:59:47;4.45;;;2.10;;
77522;SDS011;66637;-29.628;-49.938;2023-02-01T09:02:16;5.22;;;1.92;;
77522;SDS011;66637;-29.628;-49.938;2023-02-01T09:04:47;8.93;;;2.35;;
77522;SDS011;66637;-29.628;-49.938;2023-02-01T09:07:17;4.18;;;2.30;;
77522;SDS011;66637;-29.628;-49.938;2023-02-01T09:09:47;5.32;;;1.95;;
77522;SDS011;66637;-29.628;-49.938;2023-02-01T09:12:17;5.82;;;2.47;;
77522;SDS011;66637;-29.628;-49.938;2023-02-01T09:14:47;7.88;;;2.40;;
77522;SDS011;66637;-29.628;-49.938;2023-02-01T09:17:17;7.10;;;2.25;;
77522;SDS011;66637;-29.628;-49.938;2023-02-01T09:19:47;4.75;;;2.10;;
77522;SDS011;66637;-29.628;-49.938;2023-02-01T09:22:17;9.40;;;2.67;;
77522;SDS011;66637;-29.628;-49.938;2023-02-01T09:24:47;8.02;;;2.45;;
77522;SDS011;66637;-29.628;-49.938;2023-02-01T09:27:17;3.67;;;2.00;;
77522;SDS011;66637;-29.628;-49.938;2023-02-01T09:29:47;5.38;;;2.03;;
77522;SDS011;66637;-29.628;-49.938;2023-02-01T09:32:23;3.90;;;1.80;;
77522;SDS011;66637;-29.628;-49.938;2023-02-01T09:34:53;7.43;;;2.05;;
77522;SDS011;66637;-29.628;-49.938;2023-02-01T09:37:23;5.30;;;2.28;;
77522;SDS011;66637;-29.628;-49.938;2023-02-01T09:39:53;6.47;;;2.30;;
77522;SDS011;66637;-29.628;-49.938;2023-02-01T09:45:32;4.95;;;1.80;;
77522;SDS011;66637;-29.628;-49.938;2023-02-01T09:48:14;4.53;;;1.98;;
77522;SDS011;66637;-29.628;-49.938;2023-02-01T09:50:50;7.45;;;2.03;;
77522;SDS011;66637;-29.628;-49.938;2023-02-01T09:53:33;3.75;;;1.98;;
77522;SDS011;66637;-29.628;-49.938;2023-02-01T09:59:01;5.00;;;2.10;;
77522;SDS011;66637;-29.628;-49.938;2023-02-01T10:01:54;7.20;;;2.17;;
77522;SDS011;66637;-29.628;-49.938;2023-02-01T10:04:25;5.50;;;2.10;;
77522;SDS011;66637;-29.628;-49.938;2023-02-01T10:18:10;9.10;;;2.65;;
77522;SDS011;66637;-29.628;-49.938;2023-02-01T10:26:24;7.10;;;2.30;;
77522;SDS011;66637;-29.628;-49.938;2023-02-01T10:28:56;3.70;;;2.17;;
77522;SDS011;66637;-29.628;-49.938;2023-02-01T10:31:31;7.43;;;2.20;;
77522;SDS011;66637;-29.628;-49.938;2023-02-01T10:36:55;4.75;;;2.38;;
77522;SDS011;66637;-29.628;-49.938;2023-02-01T10:39:30;7.60;;;2.58;;
77522;SDS011;66637;-29.628;-49.938;2023-02-01T10:41:59;6.10;;;2.30;;
77522;SDS011;66637;-29.628;-49.938;2023-02-01T10:44:30;5.13;;;2.10;;
77522;SDS011;66637;-29.628;-49.938;2023-02-01T10:47:07;6.07;;;2.50;;
77522;SDS011;66637;-29.628;-49.938;2023-02-01T10:49:40;6.97;;;2.35;;
77522;SDS011;66637;-29.628;-49.938;2023-02-01T10:52:38;8.20;;;2.63;;
77522;SDS011;66637;-29.628;-49.938;2023-02-01T10:58:05;6.55;;;2.88;;
77522;SDS011;66637;-29.628;-49.938;2023-02-01T11:00:45;114.40;;;18.00;;
77522;SDS011;66637;-29.628;-49.938;2023-02-01T11:06:35;63.38;;;10.30;;
77522;SDS011;66637;-29.628;-49.938;2023-02-01T11:14:18;130.95;;;18.23;;
77522;SDS011;66637;-29.628;-49.938;2023-02-01T11:16:58;87.90;;;14.55;;
77522;SDS011;66637;-29.628;-49.938;2023-02-01T11:19:30;52.63;;;9.90;;
77522;SDS011;66637;-29.628;-49.938;2023-02-01T11:22:00;51.55;;;7.95;;
77522;SDS011;66637;-29.628;-49.938;2023-02-01T11:24:34;108.88;;;20.52;;
77522;SDS011;66637;-29.628;-49.938;2023-02-01T11:27:13;76.32;;;13.95;;
77522;SDS011;66637;-29.628;-49.938;2023-02-01T11:29:56;77.38;;;14.07;;
77522;SDS011;66637;-29.628;-49.938;2023-02-01T11:32:33;75.53;;;13.43;;
77522;SDS011;66637;-29.628;-49.938;2023-02-01T11:35:04;121.47;;;19.08;;
77522;SDS011;66637;-29.628;-49.938;2023-02-01T11:37:37;120.93;;;18.30;;
77522;SDS011;66637;-29.628;-49.938;2023-02-01T11:42:56;93.63;;;12.43;;
77522;SDS011;66637;-29.628;-49.938;2023-02-01T11:45:29;94.05;;;16.40;;
77522;SDS011;66637;-29.628;-49.938;2023-02-01T11:48:07;43.65;;;8.68;;
77522;SDS011;66637;-29.628;-49.938;2023-02-01T11:51:01;46.33;;;8.88;;
77522;SDS011;66637;-29.628;-49.938;2023-02-01T11:53:55;58.50;;;9.10;;
77522;SDS011;66637;-29.628;-49.938;2023-02-01T11:57:12;67.82;;;11.52;;
77522;SDS011;66637;-29.628;-49.938;2023-02-01T12:00:02;59.33;;;10.15;;
77522;SDS011;66637;-29.628;-49.938;2023-02-01T12:11:43;73.57;;;10.40;;
77522;SDS011;66637;-29.628;-49.938;2023-02-01T12:25:39;52.58;;;9.77;;
77522;SDS011;66637;-29.628;-49.938;2023-02-01T12:28:37;54.45;;;9.13;;
77522;SDS011;66637;-29.628;-49.938;2023-02-01T12:37:07;67.75;;;11.95;;
77522;SDS011;66637;-29.628;-49.938;2023-02-01T12:42:48;42.55;;;8.35;;
77522;SDS011;66637;-29.628;-49.938;2023-02-01T12:46:01;51.83;;;10.65;;
77522;SDS011;66637;-29.628;-49.938;2023-02-01T12:49:09;50.70;;;11.48;;
77522;SDS011;66637;-29.628;-49.938;2023-02-01T12:51:48;39.97;;;8.60;;
77522;SDS011;66637;-29.628;-49.938;2023-02-01T12:54:27;44.85;;;8.30;;
77522;SDS011;66637;-29.628;-49.938;2023-02-01T12:57:16;59.67;;;10.57;;
77522;SDS011;66637;-29.628;-49.938;2023-02-01T13:05:44;93.63;;;15.18;;
77522;SDS011;66637;-29.628;-49.938;2023-02-01T13:11:13;43.13;;;7.35;;
77522;SDS011;66637;-29.628;-49.938;2023-02-01T13:16:47;82.53;;;14.95;;
77522;SDS011;66637;-29.628;-49.938;2023-02-01T13:19:45;43.95;;;8.65;;
77522;SDS011;66637;-29.628;-49.938;2023-02-01T13:22:39;67.88;;;12.98;;
77522;SDS011;66637;-29.628;-49.938;2023-02-01T13:28:28;40.80;;;8.52;;
77522;SDS011;66637;-29.628;-49.938;2023-02-01T13:31:07;43.97;;;8.68;;
77522;SDS011;66637;-29.628;-49.938;2023-02-01T13:39:43;50.83;;;7.40;;
77522;SDS011;66637;-29.628;-49.938;2023-02-01T13:42:24;67.43;;;12.18;;
77522;SDS011;66637;-29.628;-49.938;2023-02-01T13:45:03;43.90;;;9.52;;
77522;SDS011;66637;-29.628;-49.938;2023-02-01T13:47:47;26.67;;;6.85;;
77522;SDS011;66637;-29.628;-49.938;2023-02-01T13:50:28;44.42;;;9.55;;
77522;SDS011;66637;-29.628;-49.938;2023-02-01T13:56:01;43.25;;;9.63;;
77522;SDS011;66637;-29.628;-49.938;2023-02-01T13:58:33;41.90;;;8.48;;
77522;SDS011;66637;-29.628;-49.938;2023-02-01T14:01:39;30.70;;;7.20;;
77522;SDS011;66637;-29.628;-49.938;2023-02-01T14:04:04;41.13;;;8.05;;
77522;SDS011;66637;-29.628;-49.938;2023-02-01T14:06:55;41.83;;;7.20;;
77522;SDS011;66637;-29.628;-49.938;2023-02-01T14:09:34;31.90;;;7.25;;
77522;SDS011;66637;-29.628;-49.938;2023-02-01T14:12:52;24.23;;;5.30;;
77522;SDS011;66637;-29.628;-49.938;2023-02-01T14:15:22;28.85;;;6.40;;
77522;SDS011;66637;-29.628;-49.938;2023-02-01T14:17:55;33.88;;;8.05;;
77522;SDS011;66637;-29.628;-49.938;2023-02-01T14:20:42;42.78;;;9.15;;
77522;SDS011;66637;-29.628;-49.938;2023-02-01T14:23:15;35.08;;;7.57;;
77522;SDS011;66637;-29.628;-49.938;2023-02-01T14:25:55;33.90;;;7.78;;
77522;SDS011;66637;-29.628;-49.938;2023-02-01T14:28:32;45.97;;;7.75;;
77522;SDS011;66637;-29.628;-49.938;2023-02-01T14:34:29;41.72;;;9.20;;
77522;SDS011;66637;-29.628;-49.938;2023-02-01T14:42:45;37.78;;;7.50;;
77522;SDS011;66637;-29.628;-49.938;2023-02-01T14:53:04;40.47;;;8.30;;
77522;SDS011;66637;-29.628;-49.938;2023-02-01T15:01:29;41.63;;;7.60;;
77522;SDS011;66637;-29.628;-49.938;2023-02-01T15:06:47;42.67;;;8.35;;
77522;SDS011;66637;-29.628;-49.938;2023-02-01T15:09:32;38.72;;;7.07;;
77522;SDS011;66637;-29.628;-49.938;2023-02-01T15:17:52;74.00;;;13.10;;
77522;SDS011;66637;-29.628;-49.938;2023-02-01T15:20:26;36.10;;;8.00;;
77522;SDS011;66637;-29.628;-49.938;2023-02-01T15:23:05;71.55;;;13.98;;
77522;SDS011;66637;-29.628;-49.938;2023-02-01T15:25:45;32.13;;;7.38;;
77522;SDS011;66637;-29.628;-49.938;2023-02-01T15:28:17;42.90;;;7.15;;
77522;SDS011;66637;-29.628;-49.938;2023-02-01T15:30:58;36.70;;;9.38;;
77522;SDS011;66637;-29.628;-49.938;2023-02-01T15:33:31;43.67;;;7.70;;
77522;SDS011;66637;-29.628;-49.938;2023-02-01T15:36:09;45.17;;;8.75;;
77522;SDS011;66637;-29.628;-49.938;2023-02-01T15:38:42;28.58;;;6.63;;
77522;SDS011;66637;-29.628;-49.938;2023-02-01T15:41:14;32.05;;;6.85;;
77522;SDS011;66637;-29.628;-49.938;2023-02-01T15:46:29;29.55;;;5.68;;
77522;SDS011;66637;-29.628;-49.938;2023-02-01T15:49:02;28.00;;;6.85;;
77522;SDS011;66637;-29.628;-49.938;2023-02-01T15:51:34;23.85;;;6.05;;
77522;SDS011;66637;-29.628;-49.938;2023-02-01T15:54:04;28.52;;;5.28;;
77522;SDS011;66637;-29.628;-49.938;2023-02-01T15:56:37;35.47;;;7.80;;
77522;SDS011;66637;-29.628;-49.938;2023-02-01T15:59:17;25.55;;;6.90;;
77522;SDS011;66637;-29.628;-49.938;2023-02-01T16:01:49;36.70;;;6.80;;
77522;SDS011;66637;-29.628;-49.938;2023-02-01T16:04:24;59.40;;;12.05;;
77522;SDS011;66637;-29.628;-49.938;2023-02-01T16:07:00;50.58;;;9.75;;
77522;SDS011;66637;-29.628;-49.938;2023-02-01T16:10:20;50.97;;;9.70;;
77522;SDS011;66637;-29.628;-49.938;2023-02-01T16:15:10;58.40;;;11.13;;
77522;SDS011;66637;-29.628;-49.938;2023-02-01T16:17:40;37.80;;;8.50;;
77522;SDS011;66637;-29.628;-49.938;2023-02-01T16:20:12;47.80;;;8.65;;
77522;SDS011;66637;-29.628;-49.938;2023-02-01T16:22:42;37.28;;;9.25;;
77522;SDS011;66637;-29.628;-49.938;2023-02-01T16:25:13;42.72;;;10.25;;
77522;SDS011;66637;-29.628;-49.938;2023-02-01T16:27:43;54.80;;;11.27;;
77522;SDS011;66637;-29.628;-49.938;2023-02-01T16:30:14;56.63;;;11.73;;
77522;SDS011;66637;-29.628;-49.938;2023-02-01T16:32:52;25.23;;;7.43;;
77522;SDS011;66637;-29.628;-49.938;2023-02-01T16:35:35;28.10;;;7.95;;
77522;SDS011;66637;-29.628;-49.938;2023-02-01T16:38:11;68.35;;;12.00;;
77522;SDS011;66637;-29.628;-49.938;2023-02-01T16:40:44;25.02;;;6.78;;
77522;SDS011;66637;-29.628;-49.938;2023-02-01T16:43:16;41.45;;;8.90;;
77522;SDS011;66637;-29.628;-49.938;2023-02-01T16:45:55;28.55;;;8.43;;
77522;SDS011;66637;-29.628;-49.938;2023-02-01T16:48:33;33.70;;;8.25;;
77522;SDS011;66637;-29.628;-49.938;2023-02-01T16:51:09;33.83;;;8.65;;
77522;SDS011;66637;-29.628;-49.938;2023-02-01T16:53:45;33.63;;;8.82;;
77522;SDS011;66637;-29.628;-49.938;2023-02-01T16:56:30;62.28;;;15.32;;
77522;SDS011;66637;-29.628;-49.938;2023-02-01T16:59:02;25.15;;;8.15;;
77522;SDS011;66637;-29.628;-49.938;2023-02-01T17:01:57;48.75;;;9.40;;
77522;SDS011;66637;-29.628;-49.938;2023-02-01T17:04:33;28.95;;;8.18;;
77522;SDS011;66637;-29.628;-49.938;2023-02-01T17:07:09;89.10;;;17.25;;
77522;SDS011;66637;-29.628;-49.938;2023-02-01T17:09:43;31.45;;;8.65;;
77522;SDS011;66637;-29.628;-49.938;2023-02-01T17:14:56;36.55;;;9.45;;
77522;SDS011;66637;-29.628;-49.938;2023-02-01T17:17:33;49.90;;;12.07;;
77522;SDS011;66637;-29.628;-49.938;2023-02-01T17:20:22;34.83;;;8.93;;
77522;SDS011;66637;-29.628;-49.938;2023-02-01T17:23:04;27.48;;;7.60;;
77522;SDS011;66637;-29.628;-49.938;2023-02-01T17:25:37;52.38;;;11.75;;
77522;SDS011;66637;-29.628;-49.938;2023-02-01T17:28:07;41.88;;;10.52;;
77522;SDS011;66637;-29.628;-49.938;2023-02-01T17:30:41;66.57;;;13.40;;
77522;SDS011;66637;-29.628;-49.938;2023-02-01T17:33:25;44.65;;;10.73;;
77522;SDS011;66637;-29.628;-49.938;2023-02-01T17:36:12;22.38;;;7.20;;